Cap Bonavista — A8CH8 — position and weather

sailwx.info

Track history (hours):
 
Tides and Currents Weather Stations Pressure Air Temp Water Temp Dewpoint Dewpoint Depression Visibility Wind Speed Wind Dir Waves Ship Positions

Cap Bonavista

Last reported at 2015-Jul-02 06:04 UTC. Time now 2015-Jul-04 01:35 UTC.
Position N 35°17' W 007°06'.

Length 200 m; beam 29.8 m; draft 11.6 m.

Type: Cargo ship. MMSI: 636090647.

Date/timePositionNaut miles runAvg speedWind from/ knotsBaromVisibWave heightAir tempDewpointWater temp
2015-Jul-02 06:04N 35°17' W 007°06'611.4
2015-Jul-02 05:31N 35°12' W 007°11'30211.5
2015-Jul-01 03:16N 31°23' W 011°08'4411.0
2015-Jun-30 23:16N 30°49' W 011°40'910.9
2015-Jun-30 22:26N 30°42' W 011°46'1210.9
2015-Jun-30 21:18N 30°32' W 011°55'910.8
2015-Jun-30 20:27N 30°25' W 012°02'1110.8
2015-Jun-30 19:25N 30°16' W 012°10'4310.5
2015-Jun-30 15:18N 29°42' W 012°41'811.0
2015-Jun-30 14:33N 29°36' W 012°47'3411.4
2015-Jun-30 11:31N 29°08' W 013°09'1211.3
2015-Jun-30 10:29N 28°57' W 013°15'2211.1
2015-Jun-30 08:28N 28°37' W 013°26'1413.2
2015-Jun-30 07:22N 28°24' W 013°33'1518.0
2015-Jun-30 06:33N 28°10' W 013°40'1817.9
2015-Jun-30 05:34N 27°54' W 013°48'1717.5
2015-Jun-30 04:34N 27°38' W 013°57'1717.1
2015-Jun-30 03:33N 27°23' W 014°06'1917.2
2015-Jun-30 02:26N 27°07' W 014°18'1617.5
2015-Jun-30 01:31N 26°54' W 014°29'5417.8
2015-Jun-29 22:31N 26°10' W 015°02'3717.8
2015-Jun-29 20:26N 25°39' W 015°25'10317.1
2015-Jun-29 14:24N 24°11' W 016°24'17217.0
2015-Jun-29 04:16N 21°38' W 017°52'7017.1
2015-Jun-29 00:10N 20°28' W 017°58'  
Track history (hours):
 
Tides and Currents Weather Stations Pressure Air Temp Water Temp Dewpoint Dewpoint Depression Visibility Wind Speed Wind Dir Waves Ship Positions

Cap Bonavista

Last reported at 2015-Jul-02 06:04 UTC. Time now 2015-Jul-04 01:35 UTC.
Position N 35°17' W 007°06'.

Length 200 m; beam 29.8 m; draft 11.6 m.

Type: Cargo ship. MMSI: 636090647.

Date/timePositionNaut miles runAvg speedWind from/ knotsBaromVisibWave heightAir tempDewpointWater temp
2015-Jul-02 06:04N 35°17' W 007°06'611.4
2015-Jul-02 05:31N 35°12' W 007°11'30211.5
2015-Jul-01 03:16N 31°23' W 011°08'4411.0
2015-Jun-30 23:16N 30°49' W 011°40'910.9
2015-Jun-30 22:26N 30°42' W 011°46'1210.9
2015-Jun-30 21:18N 30°32' W 011°55'910.8
2015-Jun-30 20:27N 30°25' W 012°02'1110.8
2015-Jun-30 19:25N 30°16' W 012°10'4310.5
2015-Jun-30 15:18N 29°42' W 012°41'811.0
2015-Jun-30 14:33N 29°36' W 012°47'3411.4
2015-Jun-30 11:31N 29°08' W 013°09'1211.3
2015-Jun-30 10:29N 28°57' W 013°15'2211.1
2015-Jun-30 08:28N 28°37' W 013°26'1413.2
2015-Jun-30 07:22N 28°24' W 013°33'1518.0
2015-Jun-30 06:33N 28°10' W 013°40'1817.9
2015-Jun-30 05:34N 27°54' W 013°48'1717.5
2015-Jun-30 04:34N 27°38' W 013°57'1717.1
2015-Jun-30 03:33N 27°23' W 014°06'1917.2
2015-Jun-30 02:26N 27°07' W 014°18'1617.5
2015-Jun-30 01:31N 26°54' W 014°29'5417.8
2015-Jun-29 22:31N 26°10' W 015°02'3717.8
2015-Jun-29 20:26N 25°39' W 015°25'10317.1
2015-Jun-29 14:24N 24°11' W 016°24'17217.0
2015-Jun-29 04:16N 21°38' W 017°52'7017.1
2015-Jun-29 00:10N 20°28' W 017°58'  

Dump ship's entire track history